CheckWX is a tool to help pilots better visualize weather data.  It is not intended as a substitute for an official pre-flight weather briefing.

01:07:22 UTC

ETEB METAR
Ansbach Army Heliport
Germany
Current

26 mins ago

ETEB 270041Z AUTO 28005KT 9999 SCT026 BKN033 BKN044 04/01 A3039 RMK AO2 SLP320 $
Observed
Mar-27 @ 00:41 UTC
Wind
  • 280° at 5 KTS
Visibility
10,000+ meters
Flight Rules
VFR
Cloud Levels
  • Scattered at 2,600' AGL
  • Broken at 3,300' AGL
  • Broken at 4,400' AGL
Temperature
C / 39°F
Dewpoint
C / 34°F
Humidity
81%
Altimeter
30.39" Hg
Pressure
1032 hPa
Previous

36 mins ago

ETEB 270031Z AUTO 29004KT 9999 BKN024 04/01 A3039 RMK AO2 SLP320 $
Observed
Mar-27 @ 00:31 UTC
Wind
  • 290° at 4 KTS
Visibility
10,000+ meters
Flight Rules
MVFR
Cloud Levels
  • Broken at 2,400' AGL
Temperature
C / 39°F
Dewpoint
C / 34°F
Humidity
81%
Altimeter
30.39" Hg
Pressure
1032 hPa
Previous

1 hour ago

ETEB 262356Z AUTO 29005KT 9999 FEW033 SCT040 04/01 A3040 RMK AO2 DZE08 SLP323 P0000 60000 T00400005 10047 20039 50004 $
Observed
Mar-26 @ 23:56 UTC
Wind
  • 290° at 5 KTS
Visibility
10,000+ meters
Flight Rules
VFR
Cloud Levels
  • Few at 3,300' AGL
  • Scattered at 4,000' AGL
Temperature
C / 39°F
Dewpoint
C / 34°F
Humidity
81%
Altimeter
30.4" Hg
Pressure
1032.3 hPa
Current Rain
0.01"